createdAt,value
2023-02-19T00:04:21.887Z,0
2023-02-19T00:19:17.708Z,0.01
2023-02-19T00:34:13.499Z,0
2023-02-19T00:49:10.343Z,0
2023-02-19T01:04:06.971Z,0
2023-02-19T01:19:02.913Z,0
2023-02-19T01:33:59.570Z,0
2023-02-19T01:48:55.975Z,0
2023-02-19T02:03:52.257Z,0
2023-02-19T02:18:48.546Z,0
2023-02-19T02:33:45.030Z,0
2023-02-19T02:48:41.230Z,0
2023-02-19T03:03:37.801Z,0
2023-02-19T03:18:33.984Z,0
2023-02-19T03:33:30.495Z,0
2023-02-19T03:48:26.339Z,0
2023-02-19T04:03:22.565Z,0
2023-02-19T04:18:18.384Z,0
2023-02-19T04:33:15.020Z,0
2023-02-19T04:48:11.042Z,0
2023-02-19T05:03:07.401Z,0
2023-02-19T05:18:03.237Z,0
2023-02-19T05:32:59.205Z,0
2023-02-19T05:47:55.827Z,0
2023-02-19T06:02:51.944Z,0
2023-02-19T06:17:48.005Z,0.01
2023-02-19T06:32:43.705Z,0.01
2023-02-19T06:47:39.534Z,0.03
2023-02-19T07:02:35.814Z,0.05
2023-02-19T07:32:28.014Z,0.02
2023-02-19T07:47:24.536Z,0.05
2023-02-19T08:02:21.533Z,0.1
2023-02-19T08:17:16.766Z,0.09
2023-02-19T08:32:12.680Z,0.06
2023-02-19T08:47:08.657Z,0.09
2023-02-19T09:02:04.901Z,0.09
2023-02-19T09:17:01.126Z,0.15
2023-02-19T09:31:57.780Z,0.11
2023-02-19T09:46:53.596Z,0.1
2023-02-19T10:01:50.278Z,0.11
2023-02-19T10:16:46.837Z,0.13
2023-02-19T10:31:43.297Z,0.06
2023-02-19T10:46:39.164Z,0.15
2023-02-19T11:01:35.333Z,0.09
2023-02-19T11:16:31.232Z,0.19
2023-02-19T12:16:16.431Z,0.22
2023-02-19T12:31:13.189Z,0.11
2023-02-19T12:46:09.527Z,0.08
2023-02-19T13:01:05.352Z,0.14
2023-02-19T13:16:01.302Z,0.29
2023-02-19T13:30:58.167Z,0.2
2023-02-19T13:45:54.125Z,0.16
2023-02-19T14:00:50.138Z,0.21
2023-02-19T14:15:46.699Z,0.11
2023-02-19T15:15:30.612Z,0.1
2023-02-19T15:30:26.785Z,0.1
2023-02-19T15:45:22.906Z,0.07
2023-02-19T16:00:19.030Z,0.06
2023-02-19T16:15:14.989Z,0.02
2023-02-19T16:30:11.520Z,0.02
2023-02-19T16:45:07.231Z,0.02
2023-02-19T17:00:03.394Z,0.01
2023-02-19T17:14:59.278Z,0
2023-02-19T17:29:55.478Z,0
2023-02-19T17:44:51.707Z,0
2023-02-19T17:59:47.879Z,0
2023-02-19T18:14:43.701Z,0
2023-02-19T18:29:39.788Z,0
2023-02-19T18:44:35.764Z,0
2023-02-19T18:59:32.014Z,0
2023-02-19T19:14:28.378Z,0
2023-02-19T19:29:24.125Z,0
2023-02-19T19:44:20.240Z,0
2023-02-19T19:59:16.336Z,0
2023-02-19T20:14:12.615Z,0
2023-02-19T20:29:08.697Z,0
2023-02-19T20:44:04.848Z,0.01
2023-02-19T20:59:01.314Z,0
2023-02-19T21:13:57.339Z,0
2023-02-19T21:28:53.346Z,0
2023-02-19T21:43:49.481Z,0
2023-02-19T21:58:45.852Z,0
2023-02-19T22:13:41.923Z,0
2023-02-19T22:28:37.890Z,0
2023-02-19T22:43:33.897Z,0
2023-02-19T22:58:29.798Z,0
2023-02-19T23:13:25.810Z,0
2023-02-19T23:28:21.760Z,0
2023-02-19T23:43:18.238Z,0
2023-02-19T23:58:14.098Z,0
